Time;durP1;ratioP1;P1;durP2;ratioP2;P2;SDS_P1;SDS_P2;PMS_P1;PMS_P2;Temp;Humidity;BMP_temperature;BMP_pressure;BME280_temperature;BME280_humidity;BME280_pressure;Samples;Min_cycle;Max_cycle;Signal;HPM_P1;HPM_P2
2023/11/05 00:01:53;;;;;;;0.90;0.40;;;9.70;99.90;;;;;;5038773;28;20856;-64
2023/11/05 00:04:20;;;;;;;0.98;0.45;;;9.70;99.90;;;;;;5034465;28;20439;-64
2023/11/05 00:06:47;;;;;;;0.50;0.50;;;9.70;99.90;;;;;;5034579;28;20238;-65
2023/11/05 00:09:15;;;;;;;1.10;0.57;;;9.60;99.90;;;;;;5040534;28;20457;-65
2023/11/05 00:11:42;;;;;;;0.40;0.40;;;9.60;99.90;;;;;;5037382;28;20265;-65
2023/11/05 00:14:08;;;;;;;1.10;1.00;;;9.60;99.90;;;;;;5054857;28;20206;-65
2023/11/05 00:16:35;;;;;;;0.63;0.60;;;9.60;99.90;;;;;;5046195;28;20215;-65
2023/11/05 00:19:03;;;;;;;0.43;0.40;;;9.60;99.90;;;;;;5034731;28;20210;-65
2023/11/05 00:21:30;;;;;;;0.65;0.65;;;9.50;99.90;;;;;;5054606;28;20205;-65
2023/11/05 00:23:57;;;;;;;0.50;0.40;;;9.50;99.90;;;;;;5054178;28;20210;-65
2023/11/05 00:26:24;;;;;;;0.80;0.80;;;9.50;99.90;;;;;;5054108;28;20494;-65
2023/11/05 00:28:51;;;;;;;0.50;0.50;;;9.50;99.90;;;;;;5054679;28;20305;-64
2023/11/05 00:31:18;;;;;;;1.67;1.58;;;9.50;99.90;;;;;;5054529;28;20202;-65
2023/11/05 00:33:45;;;;;;;0.50;0.50;;;9.40;99.90;;;;;;5054235;28;20238;-65
2023/11/05 00:36:13;;;;;;;3.33;0.70;;;9.40;99.90;;;;;;5054195;28;20704;-65
2023/11/05 00:38:40;;;;;;;1.27;0.47;;;9.40;99.90;;;;;;5054198;28;20212;-65
2023/11/05 00:41:07;;;;;;;1.35;0.80;;;9.40;99.90;;;;;;5054471;28;20556;-65
2023/11/05 00:43:34;;;;;;;1.42;0.70;;;9.40;99.90;;;;;;5054218;28;20297;-65
2023/11/05 00:46:01;;;;;;;0.50;0.43;;;9.40;99.90;;;;;;5053504;28;20612;-65
2023/11/05 00:48:28;;;;;;;0.40;0.40;;;9.40;99.90;;;;;;5053324;28;20210;-65
2023/11/05 00:50:55;;;;;;;0.75;0.50;;;9.40;99.90;;;;;;5053556;28;20206;-65
2023/11/05 00:53:23;;;;;;;4.72;0.63;;;9.40;99.90;;;;;;5054223;28;20214;-65
2023/11/05 00:55:50;;;;;;;1.02;0.50;;;9.40;99.90;;;;;;5053530;28;20226;-65
2023/11/05 00:58:16;;;;;;;1.50;0.50;;;9.40;99.90;;;;;;5054014;28;20210;-65
2023/11/05 01:00:43;;;;;;;3.05;0.85;;;9.40;99.90;;;;;;5053942;28;20210;-64
2023/11/05 01:03:11;;;;;;;1.20;0.60;;;9.30;99.90;;;;;;5053857;28;20577;-65
2023/11/05 01:05:38;;;;;;;1.20;0.40;;;9.40;99.90;;;;;;5052999;28;20225;-65
2023/11/05 01:08:05;;;;;;;0.75;0.75;;;9.40;99.90;;;;;;5053890;28;20213;-65
2023/11/05 01:10:33;;;;;;;2.20;0.60;;;9.40;99.90;;;;;;5053581;28;20287;-65
2023/11/05 01:13:00;;;;;;;0.40;0.40;;;9.40;99.90;;;;;;5053627;28;20646;-65
2023/11/05 01:15:27;;;;;;;0.60;0.60;;;9.40;99.90;;;;;;5052516;28;20216;-65
2023/11/05 01:17:54;;;;;;;0.50;0.50;;;9.40;99.90;;;;;;5053464;28;20207;-65
2023/11/05 01:20:21;;;;;;;0.70;0.70;;;9.30;99.90;;;;;;5053293;28;20695;-65
2023/11/05 01:22:48;;;;;;;0.57;0.57;;;9.40;99.90;;;;;;5053656;28;20246;-65
2023/11/05 01:25:15;;;;;;;0.60;0.60;;;9.40;99.90;;;;;;5053092;28;20531;-65
2023/11/05 01:27:43;;;;;;;0.60;0.60;;;9.40;99.90;;;;;;5053275;28;20468;-65
2023/11/05 01:30:11;;;;;;;0.60;0.60;;;9.40;99.90;;;;;;5053193;28;20207;-65
2023/11/05 01:32:38;;;;;;;0.60;0.50;;;9.40;99.90;;;;;;5053106;28;20473;-65
2023/11/05 01:35:06;;;;;;;0.70;0.70;;;9.40;99.90;;;;;;5053325;28;20289;-64
2023/11/05 01:37:33;;;;;;;0.70;0.70;;;9.40;99.90;;;;;;5053166;28;20544;-65
2023/11/05 01:40:00;;;;;;;0.52;0.52;;;9.40;99.90;;;;;;5053162;28;20951;-64
2023/11/05 01:42:26;;;;;;;0.70;0.70;;;9.40;99.90;;;;;;5053110;28;20734;-65
2023/11/05 01:44:54;;;;;;;2.95;0.70;;;9.40;99.90;;;;;;5052055;28;20211;-65
2023/11/05 01:47:21;;;;;;;0.55;0.55;;;9.30;99.90;;;;;;5045371;28;20247;-66
2023/11/05 01:49:50;;;;;;;0.95;0.50;;;9.30;99.90;;;;;;5044564;28;20206;-65
2023/11/05 01:52:19;;;;;;;0.40;0.40;;;9.20;99.90;;;;;;5052669;28;20297;-64
2023/11/05 01:54:45;;;;;;;0.60;0.60;;;9.20;99.90;;;;;;5052918;28;20252;-65
2023/11/05 01:57:12;;;;;;;2.35;0.57;;;9.10;99.90;;;;;;5052469;28;20528;-64
2023/11/05 01:59:40;;;;;;;0.40;0.40;;;9.10;99.90;;;;;;5044275;28;20677;-65
2023/11/05 02:02:08;;;;;;;0.30;0.30;;;9.00;99.90;;;;;;5052853;28;20203;-65
2023/11/05 02:04:36;;;;;;;0.85;0.73;;;9.00;99.90;;;;;;5052678;28;20214;-65
2023/11/05 02:07:03;;;;;;;1.40;1.30;;;8.90;99.90;;;;;;5052433;28;20326;-65
2023/11/05 02:09:30;;;;;;;0.95;0.40;;;8.80;99.90;;;;;;5052794;28;20252;-65
2023/11/05 02:11:58;;;;;;;0.68;0.63;;;8.80;99.90;;;;;;5052581;28;20213;-65
2023/11/05 02:14:25;;;;;;;0.40;0.40;;;8.70;99.90;;;;;;5052422;28;20203;-65
2023/11/05 02:16:52;;;;;;;0.63;0.55;;;8.70;99.90;;;;;;5052366;28;20592;-64
2023/11/05 02:19:20;;;;;;;0.57;0.57;;;8.70;99.90;;;;;;5052585;28;20220;-65
2023/11/05 02:21:50;;;;;;;0.40;0.40;;;8.70;99.90;;;;;;5052682;28;20210;-65
2023/11/05 02:24:19;;;;;;;1.05;0.47;;;8.60;99.90;;;;;;5052389;28;20230;-65
2023/11/05 02:26:56;;;;;;;0.60;0.60;;;8.60;99.90;;;;;;5050754;28;20230;-64
2023/11/05 02:29:23;;;;;;;1.00;0.90;;;8.60;99.90;;;;;;5052266;28;20206;-65
2023/11/05 02:31:50;;;;;;;0.70;0.45;;;8.50;99.90;;;;;;5052350;28;20293;-65
2023/11/05 02:34:16;;;;;;;3.22;0.80;;;8.50;99.90;;;;;;5052211;28;20217;-65
2023/11/05 02:36:44;;;;;;;1.27;0.50;;;8.50;99.90;;;;;;5043342;28;20222;-65
2023/11/05 02:39:12;;;;;;;0.65;0.43;;;8.50;99.90;;;;;;5051995;28;20293;-65
2023/11/05 02:41:40;;;;;;;1.58;1.05;;;8.50;99.90;;;;;;5051992;28;20214;-65
2023/11/05 02:44:07;;;;;;;0.73;0.60;;;8.50;99.90;;;;;;5051968;28;20225;-65
2023/11/05 02:46:34;;;;;;;1.85;0.60;;;8.50;99.90;;;;;;5051372;28;20325;-65
2023/11/05 02:49:00;;;;;;;1.00;0.75;;;8.60;99.90;;;;;;5051859;28;20586;-65
2023/11/05 02:51:27;;;;;;;2.35;0.95;;;8.60;99.90;;;;;;5051800;28;20207;-65
2023/11/05 02:53:54;;;;;;;2.95;0.55;;;8.60;99.90;;;;;;5051674;28;20760;-65
2023/11/05 02:56:21;;;;;;;0.75;0.75;;;8.60;99.90;;;;;;5050909;28;20313;-65
2023/11/05 02:58:50;;;;;;;0.57;0.57;;;8.60;99.90;;;;;;5051598;28;20238;-65
2023/11/05 03:01:23;;;;;;;1.00;1.00;;;8.60;99.90;;;;;;5051653;28;20825;-65
2023/11/05 03:03:51;;;;;;;1.08;0.57;;;8.70;99.90;;;;;;5051756;28;20695;-65
2023/11/05 03:06:18;;;;;;;1.95;0.82;;;8.70;99.90;;;;;;5051074;28;20223;-65
2023/11/05 03:08:44;;;;;;;1.27;0.80;;;8.70;99.90;;;;;;5051740;28;20206;-65
2023/11/05 03:11:11;;;;;;;0.50;0.50;;;8.70;99.90;;;;;;5051486;28;20730;-65
2023/11/05 03:13:38;;;;;;;0.90;0.55;;;8.80;99.90;;;;;;5051446;28;20704;-65
2023/11/05 03:16:11;;;;;;;0.80;0.68;;;8.80;99.90;;;;;;5051182;28;20226;-65
2023/11/05 03:18:38;;;;;;;0.80;0.80;;;8.80;99.90;;;;;;5051476;28;20634;-65
2023/11/05 03:21:06;;;;;;;0.60;0.60;;;8.70;99.90;;;;;;5051216;28;20590;-65
2023/11/05 03:23:32;;;;;;;5.85;1.13;;;8.70;99.90;;;;;;5050564;28;20213;-65
2023/11/05 03:25:59;;;;;;;0.70;0.57;;;8.70;99.90;;;;;;5050837;28;20261;-65
2023/11/05 03:28:26;;;;;;;0.75;0.40;;;8.80;99.90;;;;;;5051015;28;20206;-64
2023/11/05 03:30:53;;;;;;;0.90;0.65;;;8.80;99.90;;;;;;5051039;28;20206;-65
2023/11/05 03:33:21;;;;;;;1.65;0.50;;;8.90;99.90;;;;;;5051220;28;20280;-65
2023/11/05 03:35:51;;;;;;;0.70;0.50;;;8.90;99.90;;;;;;5050391;28;20313;-65
2023/11/05 03:38:18;;;;;;;0.50;0.50;;;8.90;99.90;;;;;;5042419;28;20683;-65
2023/11/05 03:40:45;;;;;;;0.80;0.80;;;9.00;99.90;;;;;;5051128;28;20297;-64
2023/11/05 03:43:11;;;;;;;0.63;0.63;;;9.00;99.90;;;;;;5051202;28;20206;-65
2023/11/05 03:45:38;;;;;;;1.07;0.50;;;9.10;99.90;;;;;;5050372;28;20451;-65
2023/11/05 03:48:07;;;;;;;4.00;0.60;;;9.10;99.90;;;;;;5050597;28;20534;-65
2023/11/05 03:50:36;;;;;;;2.00;0.80;;;9.10;99.90;;;;;;5051115;28;21039;-65
2023/11/05 03:53:02;;;;;;;2.92;0.60;;;9.20;99.90;;;;;;5051042;28;20451;-64
2023/11/05 03:55:29;;;;;;;1.63;0.60;;;9.20;99.90;;;;;;5050470;28;20206;-65
2023/11/05 03:57:56;;;;;;;0.68;0.60;;;9.20;99.90;;;;;;5050915;28;20206;-65
2023/11/05 04:00:23;;;;;;;0.88;0.60;;;9.20;99.90;;;;;;5050921;28;20297;-65
2023/11/05 04:02:50;;;;;;;0.50;0.50;;;9.20;99.90;;;;;;5050715;28;20703;-65
2023/11/05 04:05:17;;;;;;;0.85;0.47;;;9.30;99.90;;;;;;5050451;28;20212;-65
2023/11/05 04:07:46;;;;;;;0.50;0.50;;;9.30;99.90;;;;;;5050625;28;20264;-65
2023/11/05 04:10:11;;;;;;;1.90;0.60;;;9.30;99.90;;;;;;5050755;28;20206;-65
2023/11/05 04:12:38;;;;;;;2.50;0.93;;;9.30;99.90;;;;;;5051055;28;21042;-65
2023/11/05 04:15:06;;;;;;;1.73;0.80;;;9.30;99.90;;;;;;5050505;28;20453;-66
2023/11/05 04:17:34;;;;;;;0.87;0.70;;;9.40;99.90;;;;;;5050342;28;20477;-65
2023/11/05 04:20:01;;;;;;;1.73;0.93;;;9.40;99.90;;;;;;5050878;28;20453;-65
2023/11/05 04:22:27;;;;;;;1.13;0.70;;;9.40;99.90;;;;;;5050885;28;20453;-65
2023/11/05 04:24:56;;;;;;;1.50;0.63;;;9.40;99.90;;;;;;5050526;28;20212;-65
2023/11/05 04:27:23;;;;;;;1.15;0.75;;;9.40;99.90;;;;;;5050421;28;21006;-65
2023/11/05 04:29:50;;;;;;;0.63;0.30;;;9.40;99.90;;;;;;5050548;28;20221;-65
2023/11/05 04:32:17;;;;;;;1.83;1.83;;;9.40;99.90;;;;;;5051036;28;20451;-65
2023/11/05 04:34:43;;;;;;;1.15;0.45;;;9.40;99.90;;;;;;5050963;28;20202;-65
2023/11/05 04:37:11;;;;;;;1.03;1.03;;;9.40;99.90;;;;;;5050485;28;20675;-65
2023/11/05 04:39:38;;;;;;;1.27;0.70;;;9.40;99.90;;;;;;5050773;28;20444;-65
2023/11/05 04:42:07;;;;;;;1.33;0.70;;;9.50;99.90;;;;;;5050539;28;20237;-65
2023/11/05 04:44:35;;;;;;;1.23;0.70;;;9.40;99.90;;;;;;5050662;28;20268;-65
2023/11/05 04:47:02;;;;;;;1.52;0.60;;;9.40;99.90;;;;;;5050335;28;20579;-65
2023/11/05 04:49:29;;;;;;;3.07;0.50;;;9.40;99.90;;;;;;5051220;28;20238;-65
2023/11/05 04:51:56;;;;;;;0.77;0.77;;;9.40;99.90;;;;;;5054166;28;20444;-65
2023/11/05 04:54:23;;;;;;;2.00;0.80;;;9.40;99.90;;;;;;5053927;28;20441;-65
2023/11/05 04:56:50;;;;;;;1.63;0.60;;;9.40;99.90;;;;;;5053532;28;20979;-65
2023/11/05 04:59:18;;;;;;;2.47;0.60;;;9.40;99.90;;;;;;5053933;28;20528;-65
2023/11/05 05:01:44;;;;;;;0.60;0.50;;;9.40;99.90;;;;;;5054301;28;20218;-65
2023/11/05 05:04:11;;;;;;;0.60;0.60;;;9.40;99.90;;;;;;5053927;28;20856;-64
2023/11/05 05:06:38;;;;;;;1.03;0.87;;;9.40;99.90;;;;;;5053285;28;21007;-65
2023/11/05 05:09:09;;;;;;;1.70;0.70;;;9.50;99.90;;;;;;5076140;22;20500;-64
2023/11/05 05:11:35;;;;;;;0.60;0.60;;;9.50;99.90;;;;;;5053934;28;20298;-64
2023/11/05 05:14:02;;;;;;;1.10;0.50;;;9.50;99.90;;;;;;5053928;28;20444;-64
2023/11/05 05:16:30;;;;;;;2.00;0.60;;;9.50;99.90;;;;;;5053418;28;20305;-64
2023/11/05 05:18:57;;;;;;;3.60;1.43;;;9.50;99.90;;;;;;5053753;28;20469;-64
2023/11/05 05:21:24;;;;;;;1.42;0.93;;;9.50;99.90;;;;;;5053683;28;20440;-64
2023/11/05 05:23:51;;;;;;;0.70;0.70;;;9.60;99.90;;;;;;5053775;28;20363;-63
2023/11/05 05:26:18;;;;;;;2.53;0.77;;;9.60;99.90;;;;;;5053193;28;20519;-64
2023/11/05 05:28:47;;;;;;;1.00;0.80;;;9.60;99.90;;;;;;5053575;28;20858;-64
2023/11/05 05:31:14;;;;;;;0.77;0.70;;;9.60;99.90;;;;;;5053799;28;20449;-64
2023/11/05 05:33:42;;;;;;;2.53;0.65;;;9.60;99.90;;;;;;5053657;28;20648;-64
2023/11/05 05:36:09;;;;;;;0.70;0.60;;;9.70;99.90;;;;;;5053349;28;20206;-64
2023/11/05 05:38:36;;;;;;;1.03;0.43;;;9.70;99.90;;;;;;5053291;28;20460;-64
2023/11/05 05:41:03;;;;;;;0.50;0.50;;;9.70;99.90;;;;;;5053188;28;20451;-64
2023/11/05 05:43:30;;;;;;;0.70;0.70;;;9.70;99.90;;;;;;5053229;28;20451;-64
2023/11/05 05:45:57;;;;;;;1.63;0.73;;;9.70;99.90;;;;;;5052914;28;20452;-64
2023/11/05 05:48:24;;;;;;;0.50;0.50;;;9.80;99.90;;;;;;5053148;28;20487;-64
2023/11/05 05:50:52;;;;;;;1.03;0.50;;;9.80;99.90;;;;;;5053140;28;20808;-63
2023/11/05 05:53:19;;;;;;;5.50;1.17;;;9.80;99.90;;;;;;5053060;28;20536;-63
2023/11/05 05:55:46;;;;;;;0.70;0.57;;;9.80;99.90;;;;;;5052985;28;20456;-64
2023/11/05 05:58:15;;;;;;;1.00;1.00;;;9.90;99.90;;;;;;5053268;28;20469;-63
2023/11/05 06:00:43;;;;;;;0.83;0.70;;;9.90;99.90;;;;;;5052959;28;20537;-64
2023/11/05 06:03:10;;;;;;;0.60;0.60;;;9.90;99.90;;;;;;5052907;28;20791;-64
2023/11/05 06:05:37;;;;;;;6.07;0.93;;;9.90;99.90;;;;;;5052454;28;20488;-64
2023/11/05 06:08:05;;;;;;;0.97;0.50;;;9.90;99.90;;;;;;5052402;28;20617;-64
2023/11/05 06:10:32;;;;;;;0.93;0.93;;;9.90;99.90;;;;;;5052969;28;20445;-64
2023/11/05 06:12:59;;;;;;;2.60;1.10;;;10.00;99.90;;;;;;5052800;28;20445;-64
2023/11/05 06:15:26;;;;;;;1.42;0.90;;;10.00;99.90;;;;;;5052415;28;20475;-64
2023/11/05 06:17:53;;;;;;;1.47;0.80;;;10.00;99.90;;;;;;5052470;28;20254;-64
2023/11/05 06:20:20;;;;;;;1.00;0.90;;;10.00;99.90;;;;;;5052525;28;20460;-64
2023/11/05 06:22:46;;;;;;;1.13;0.60;;;10.10;99.90;;;;;;5052461;28;20531;-64
2023/11/05 06:25:15;;;;;;;1.87;0.80;;;10.10;99.90;;;;;;5052422;28;20445;-64
2023/11/05 06:27:43;;;;;;;1.27;0.50;;;10.20;99.90;;;;;;5052349;28;20576;-64
2023/11/05 06:30:11;;;;;;;1.30;0.53;;;10.20;99.90;;;;;;5052363;28;20456;-64
2023/11/05 06:32:39;;;;;;;2.97;1.10;;;10.20;99.90;;;;;;5052187;28;20898;-64
2023/11/05 06:35:07;;;;;;;3.20;1.43;;;10.30;99.90;;;;;;5051941;28;20449;-64
2023/11/05 06:37:34;;;;;;;1.53;0.90;;;10.20;99.90;;;;;;5051908;28;20472;-64
2023/11/05 06:40:01;;;;;;;1.57;0.70;;;10.30;99.90;;;;;;5052135;28;20546;-64
2023/11/05 06:42:30;;;;;;;0.60;0.60;;;10.30;99.90;;;;;;5052018;28;20535;-64
2023/11/05 06:44:57;;;;;;;2.00;0.70;;;10.30;99.90;;;;;;5052093;28;20535;-64
2023/11/05 06:47:24;;;;;;;1.60;1.30;;;10.40;99.90;;;;;;5051635;28;20496;-64
2023/11/05 06:49:51;;;;;;;1.20;0.97;;;10.40;99.90;;;;;;5051551;28;20468;-64
2023/11/05 06:52:18;;;;;;;2.70;0.70;;;10.40;99.90;;;;;;5051780;28;20478;-64
2023/11/05 06:54:45;;;;;;;2.20;1.10;;;10.40;99.90;;;;;;5051840;28;20524;-64
2023/11/05 06:57:11;;;;;;;1.13;0.60;;;10.40;99.90;;;;;;5051411;28;20477;-64
2023/11/05 06:59:40;;;;;;;3.20;1.00;;;10.40;99.90;;;;;;5051163;28;20473;-64
2023/11/05 07:02:10;;;;;;;3.53;1.10;;;10.40;99.90;;;;;;5051407;28;20445;-64
2023/11/05 07:04:37;;;;;;;0.70;0.60;;;10.40;99.90;;;;;;5052044;28;20912;-64
2023/11/05 07:07:04;;;;;;;1.43;0.97;;;10.30;99.90;;;;;;5051172;28;20448;-64
2023/11/05 07:09:31;;;;;;;2.20;0.80;;;10.30;99.90;;;;;;5051380;28;20483;-64
2023/11/05 07:11:58;;;;;;;1.70;0.90;;;10.30;99.90;;;;;;5051333;28;20456;-64
2023/11/05 07:14:25;;;;;;;3.20;0.80;;;10.30;99.90;;;;;;5051633;28;20448;-64
2023/11/05 07:16:53;;;;;;;3.37;0.80;;;10.30;99.90;;;;;;5051295;28;20445;-64
2023/11/05 07:19:20;;;;;;;2.23;0.80;;;10.30;99.90;;;;;;5051651;28;20473;-64
2023/11/05 07:21:47;;;;;;;1.50;0.77;;;10.30;99.90;;;;;;5051429;28;20445;-64
2023/11/05 07:24:15;;;;;;;3.30;1.70;;;10.40;99.90;;;;;;5051455;28;20459;-64
2023/11/05 07:26:43;;;;;;;1.53;1.23;;;10.40;99.90;;;;;;5051313;28;20455;-64
2023/11/05 07:29:11;;;;;;;1.10;1.10;;;10.40;99.90;;;;;;5051047;28;20493;-64
2023/11/05 07:31:39;;;;;;;0.70;0.57;;;10.30;99.90;;;;;;5051353;28;20449;-64
2023/11/05 07:34:07;;;;;;;2.50;0.80;;;10.30;99.90;;;;;;5051384;28;20806;-64
2023/11/05 07:36:36;;;;;;;2.13;0.90;;;10.30;99.90;;;;;;5050846;28;20464;-64
2023/11/05 07:39:03;;;;;;;2.30;0.70;;;10.30;99.90;;;;;;5051143;28;20507;-64
2023/11/05 07:41:30;;;;;;;1.33;1.23;;;10.40;99.90;;;;;;5051264;28;20457;-64
2023/11/05 07:43:58;;;;;;;1.97;0.80;;;10.40;99.90;;;;;;5050959;28;20441;-64
2023/11/05 07:46:24;;;;;;;2.40;0.80;;;10.40;99.90;;;;;;5050841;28;20449;-64
2023/11/05 07:48:51;;;;;;;1.90;0.90;;;10.40;99.90;;;;;;5050969;28;20538;-64
2023/11/05 07:51:21;;;;;;;1.90;0.87;;;10.40;99.90;;;;;;5051017;28;20448;-64
2023/11/05 07:53:49;;;;;;;1.70;0.97;;;10.40;99.90;;;;;;5051020;28;20635;-64
2023/11/05 07:56:16;;;;;;;1.97;1.10;;;10.40;99.90;;;;;;5050610;28;20826;-64
2023/11/05 07:58:44;;;;;;;3.27;1.30;;;10.50;99.90;;;;;;5050854;28;20472;-64
2023/11/05 08:01:12;;;;;;;3.73;1.33;;;10.50;99.90;;;;;;5051192;28;20812;-64
2023/11/05 08:03:40;;;;;;;4.80;1.67;;;10.50;99.90;;;;;;5051014;28;20455;-64
2023/11/05 08:06:07;;;;;;;3.10;0.83;;;10.50;99.90;;;;;;5050526;28;20488;-64
2023/11/05 08:08:36;;;;;;;1.53;1.37;;;10.50;99.90;;;;;;5050685;28;20495;-64
2023/11/05 08:11:03;;;;;;;1.53;0.87;;;10.60;99.90;;;;;;5050652;28;20965;-64
2023/11/05 08:13:30;;;;;;;3.27;1.80;;;10.60;99.90;;;;;;5050891;28;20480;-64
2023/11/05 08:15:58;;;;;;;1.60;1.43;;;10.70;99.90;;;;;;5050691;28;20520;-64
2023/11/05 08:18:25;;;;;;;2.53;1.20;;;10.60;99.90;;;;;;5050655;28;20461;-64
2023/11/05 08:20:53;;;;;;;1.60;1.37;;;10.60;99.90;;;;;;5050492;28;20445;-64
2023/11/05 08:23:20;;;;;;;1.60;0.90;;;10.70;99.90;;;;;;5050922;28;20449;-64
2023/11/05 08:25:48;;;;;;;2.50;1.47;;;10.70;99.90;;;;;;5054212;28;21026;-64
2023/11/05 08:28:16;;;;;;;2.77;1.13;;;10.70;99.90;;;;;;5054546;28;20571;-63
2023/11/05 08:30:43;;;;;;;5.80;1.27;;;10.70;99.90;;;;;;5054541;28;20463;-64
2023/11/05 08:33:10;;;;;;;2.40;1.30;;;10.60;99.90;;;;;;5054321;28;20444;-64
2023/11/05 08:35:36;;;;;;;1.93;1.43;;;10.60;99.90;;;;;;5053960;28;20452;-64
2023/11/05 08:38:03;;;;;;;3.00;1.47;;;10.60;99.90;;;;;;5054047;28;20466;-64
2023/11/05 08:40:30;;;;;;;2.67;1.27;;;10.60;99.90;;;;;;5054152;28;20242;-65
2023/11/05 08:42:58;;;;;;;5.67;1.23;;;10.60;99.90;;;;;;5054313;28;20455;-65
2023/11/05 08:45:25;;;;;;;3.60;2.97;;;10.50;99.90;;;;;;5053728;28;20488;-65
2023/11/05 08:47:52;;;;;;;2.07;1.97;;;10.50;99.90;;;;;;5052047;28;20488;-65
2023/11/05 08:50:19;;;;;;;2.50;0.97;;;10.50;99.90;;;;;;5046773;28;20448;-65
2023/11/05 08:52:46;;;;;;;2.83;2.20;;;10.50;99.90;;;;;;5053792;28;20449;-65
2023/11/05 08:55:13;;;;;;;2.23;1.70;;;10.50;99.90;;;;;;5046204;28;20449;-65
2023/11/05 08:57:40;;;;;;;2.07;1.30;;;10.50;99.90;;;;;;5053646;28;20483;-66
2023/11/05 09:00:12;;;;;;;2.30;2.07;;;10.50;99.90;;;;;;5050228;28;20449;-64
2023/11/05 09:02:39;;;;;;;1.47;1.20;;;10.50;99.90;;;;;;5053930;28;20448;-65
2023/11/05 09:05:06;;;;;;;4.27;1.67;;;10.50;99.90;;;;;;5050698;28;20451;-65
2023/11/05 09:07:34;;;;;;;1.17;0.83;;;10.50;99.90;;;;;;5053090;28;20940;-65
2023/11/05 09:10:00;;;;;;;1.33;1.03;;;10.50;99.90;;;;;;5046568;28;21141;-65
2023/11/05 09:12:29;;;;;;;1.43;1.33;;;10.60;99.90;;;;;;5053658;28;20830;-65
2023/11/05 09:14:57;;;;;;;1.33;1.23;;;10.60;99.90;;;;;;5049491;28;21012;-65
2023/11/05 09:17:25;;;;;;;1.80;0.90;;;10.70;99.90;;;;;;5053290;28;20441;-64
2023/11/05 09:19:52;;;;;;;2.03;1.93;;;10.70;99.90;;;;;;5049890;28;20541;-65
2023/11/05 09:22:20;;;;;;;1.50;0.97;;;10.80;99.90;;;;;;5051392;28;20441;-66
2023/11/05 09:24:47;;;;;;;1.13;1.10;;;10.80;99.90;;;;;;5047474;28;20461;-65
2023/11/05 09:27:13;;;;;;;1.40;1.40;;;10.90;99.90;;;;;;5051622;28;20451;-64
2023/11/05 09:29:40;;;;;;;1.83;1.67;;;11.00;99.90;;;;;;5048085;28;20500;-65
2023/11/05 09:32:08;;;;;;;0.63;0.63;;;11.10;99.90;;;;;;5051478;28;20441;-65
2023/11/05 09:34:36;;;;;;;1.40;0.70;;;11.10;99.90;;;;;;5045296;28;20483;-64
2023/11/05 09:37:03;;;;;;;1.90;1.07;;;11.10;99.90;;;;;;5043425;28;20536;-65
2023/11/05 09:39:30;;;;;;;1.60;0.80;;;11.20;99.90;;;;;;5049088;28;21067;-64
2023/11/05 09:41:57;;;;;;;0.97;0.70;;;11.20;99.90;;;;;;5052663;28;20437;-65
2023/11/05 09:44:24;;;;;;;0.70;0.57;;;11.10;99.90;;;;;;5048083;28;20539;-65
2023/11/05 09:46:53;;;;;;;1.40;0.70;;;11.10;99.90;;;;;;5045719;28;20461;-65
2023/11/05 09:49:20;;;;;;;1.70;0.50;;;11.00;99.90;;;;;;5040743;28;20519;-65
2023/11/05 09:51:50;;;;;;;0.77;0.73;;;11.00;99.90;;;;;;5041118;28;20475;-65
2023/11/05 09:54:17;;;;;;;0.50;0.40;;;11.00;99.90;;;;;;5040388;28;21059;-65
2023/11/05 09:56:44;;;;;;;2.30;0.87;;;11.00;99.90;;;;;;5040588;28;20539;-64
2023/11/05 09:59:11;;;;;;;0.70;0.70;;;11.10;99.90;;;;;;5040121;28;20475;-65
2023/11/05 10:01:38;;;;;;;0.80;0.53;;;11.10;99.90;;;;;;5040324;28;20951;-65
2023/11/05 10:04:06;;;;;;;0.50;0.50;;;11.20;99.90;;;;;;5039380;28;20461;-65
2023/11/05 10:06:33;;;;;;;1.10;1.00;;;11.20;99.90;;;;;;5044945;28;21668;-64
2023/11/05 10:09:03;;;;;;;0.40;0.40;;;11.30;99.90;;;;;;5046546;28;20586;-64
2023/11/05 10:11:31;;;;;;;0.90;0.90;;;11.30;99.90;;;;;;5044533;28;20454;-64
2023/11/05 10:13:58;;;;;;;0.50;0.50;;;11.30;99.90;;;;;;5045120;28;20476;-64
2023/11/05 10:16:26;;;;;;;0.83;0.83;;;11.30;99.90;;;;;;5044012;28;20453;-64
2023/11/05 10:18:54;;;;;;;1.17;0.97;;;11.40;99.90;;;;;;5044417;28;20465;-64
2023/11/05 10:21:33;;;;;;;0.90;0.90;;;11.50;99.90;;;;;;5046501;28;20457;-63
2023/11/05 10:24:00;;;;;;;0.60;0.60;;;11.50;99.90;;;;;;5047479;28;20484;-64
2023/11/05 10:26:29;;;;;;;0.70;0.70;;;11.60;99.90;;;;;;5043401;28;20829;-64
2023/11/05 10:28:57;;;;;;;0.60;0.60;;;11.60;99.90;;;;;;5045589;28;20882;-64
2023/11/05 10:31:25;;;;;;;0.53;0.53;;;11.70;99.90;;;;;;5045326;28;20941;-64
2023/11/05 10:33:53;;;;;;;1.43;0.60;;;11.70;99.90;;;;;;5047022;28;20460;-64
2023/11/05 10:36:20;;;;;;;0.60;0.60;;;11.80;99.90;;;;;;5038233;28;20481;-64
2023/11/05 10:38:47;;;;;;;0.50;0.50;;;11.90;99.90;;;;;;5042588;28;20551;-64
2023/11/05 10:41:16;;;;;;;0.77;0.60;;;11.90;99.90;;;;;;5047251;28;20468;-65
2023/11/05 10:43:47;;;;;;;0.80;0.80;;;12.00;99.90;;;;;;5042619;28;20475;-64
2023/11/05 10:46:16;;;;;;;0.97;0.60;;;12.00;99.90;;;;;;5039412;28;20484;-64
2023/11/05 10:48:44;;;;;;;0.40;0.40;;;12.10;99.90;;;;;;5039517;28;20580;-64
2023/11/05 10:51:12;;;;;;;2.90;0.70;;;12.20;99.90;;;;;;5047000;28;20556;-65
2023/11/05 10:53:41;;;;;;;0.80;0.40;;;12.20;99.90;;;;;;5046474;28;20451;-64
2023/11/05 10:56:30;;;;;;;0.63;0.63;;;12.30;99.90;;;;;;5045056;28;20544;-65
2023/11/05 10:58:58;;;;;;;0.57;0.50;;;12.40;99.90;;;;;;5048445;28;20471;-65
2023/11/05 11:01:29;;;;;;;1.17;0.50;;;12.50;99.90;;;;;;5046903;28;20456;-64
2023/11/05 11:04:03;;;;;;;3.77;1.10;;;12.50;99.90;;;;;;5044618;28;20459;-64
2023/11/05 11:06:30;;;;;;;1.47;0.80;;;12.50;99.90;;;;;;5045417;28;20457;-64
2023/11/05 11:09:07;;;;;;;0.83;0.60;;;12.40;99.90;;;;;;5044513;28;20492;-65
2023/11/05 11:11:36;;;;;;;1.20;0.80;;;12.30;99.90;;;;;;5043011;28;20808;-65
2023/11/05 11:14:05;;;;;;;0.80;0.60;;;12.10;99.90;;;;;;5040104;28;20514;-65
2023/11/05 11:16:35;;;;;;;1.83;0.90;;;12.00;99.90;;;;;;5042097;28;20566;-65
2023/11/05 11:19:09;;;;;;;2.27;1.20;;;11.80;99.90;;;;;;5046930;28;21006;-66
2023/11/05 11:21:39;;;;;;;0.97;0.97;;;11.70;99.90;;;;;;5048052;28;20510;-65
2023/11/05 11:24:39;;;;;;;0.90;0.90;;;11.60;99.90;;;;;;5044455;28;20461;-66
2023/11/05 11:27:09;;;;;;;1.60;1.50;;;11.50;99.90;;;;;;5038848;28;20550;-65
2023/11/05 11:29:38;;;;;;;1.20;0.90;;;11.50;99.90;;;;;;5038366;28;20495;-65
2023/11/05 11:32:06;;;;;;;2.80;1.60;;;11.40;99.90;;;;;;5038429;28;20491;-65
2023/11/05 11:34:34;;;;;;;1.07;1.00;;;11.40;99.90;;;;;;5038777;28;20872;-65
2023/11/05 11:37:03;;;;;;;1.90;1.80;;;11.40;99.90;;;;;;5038662;28;20457;-65
2023/11/05 11:39:31;;;;;;;0.70;0.60;;;11.40;99.90;;;;;;5039635;28;20489;-65
2023/11/05 11:41:58;;;;;;;0.70;0.70;;;11.40;99.90;;;;;;5046756;28;20475;-65
2023/11/05 11:44:26;;;;;;;0.80;0.80;;;11.40;99.90;;;;;;5045250;28;20977;-65
2023/11/05 11:46:54;;;;;;;0.90;0.90;;;11.50;99.90;;;;;;5045042;28;20457;-65
2023/11/05 11:49:23;;;;;;;1.00;0.80;;;11.50;99.90;;;;;;5046010;28;20485;-65
2023/11/05 11:51:50;;;;;;;1.17;0.93;;;11.50;99.90;;;;;;5038175;28;20544;-65
2023/11/05 11:54:16;;;;;;;1.20;0.80;;;11.60;99.90;;;;;;5044435;28;20454;-65
2023/11/05 11:56:43;;;;;;;1.10;1.10;;;11.60;99.90;;;;;;5039733;28;20460;-65
2023/11/05 11:59:10;;;;;;;1.13;0.60;;;11.70;99.90;;;;;;5043897;28;20464;-64
2023/11/05 12:01:40;;;;;;;0.70;0.70;;;11.70;99.90;;;;;;5041409;28;20459;-65
2023/11/05 12:04:08;;;;;;;3.27;0.70;;;11.80;99.90;;;;;;5045972;28;20446;-65
2023/11/05 12:06:40;;;;;;;1.53;0.60;;;11.80;99.90;;;;;;5048179;28;20457;-65
2023/11/05 12:09:08;;;;;;;1.33;0.63;;;11.80;99.90;;;;;;5048939;28;20491;-65
2023/11/05 12:11:35;;;;;;;1.00;0.90;;;11.80;99.90;;;;;;5048284;28;21030;-64
2023/11/05 12:14:03;;;;;;;0.43;0.43;;;11.80;99.90;;;;;;5049730;28;20535;-65
2023/11/05 12:16:30;;;;;;;2.00;0.80;;;11.80;99.90;;;;;;5045473;28;20457;-64
2023/11/05 12:18:57;;;;;;;0.40;0.40;;;11.80;99.90;;;;;;5040249;28;20480;-64
2023/11/05 12:21:26;;;;;;;0.57;0.57;;;11.90;99.90;;;;;;5045113;28;21017;-65
2023/11/05 12:23:54;;;;;;;2.27;1.10;;;11.90;99.90;;;;;;5043854;28;20894;-65
2023/11/05 12:26:21;;;;;;;1.67;1.00;;;11.80;99.90;;;;;;5047380;28;20453;-65
2023/11/05 12:28:48;;;;;;;1.33;0.93;;;11.80;99.90;;;;;;5047549;28;20582;-65
2023/11/05 12:31:15;;;;;;;1.77;0.70;;;11.70;99.90;;;;;;5043322;28;20475;-65
2023/11/05 12:33:43;;;;;;;0.90;0.90;;;11.70;99.90;;;;;;5048839;28;20890;-65
2023/11/05 12:36:10;;;;;;;0.60;0.60;;;11.60;99.90;;;;;;5045608;28;20734;-66
2023/11/05 12:38:39;;;;;;;1.90;0.93;;;11.60;99.90;;;;;;5044700;28;20487;-65
2023/11/05 12:41:06;;;;;;;0.70;0.70;;;11.60;99.90;;;;;;5050496;28;20552;-65
2023/11/05 12:43:33;;;;;;;0.93;0.93;;;11.50;99.90;;;;;;5045639;28;21361;-65
2023/11/05 12:46:00;;;;;;;0.80;0.80;;;11.40;99.90;;;;;;5044900;28;20453;-65
2023/11/05 12:48:27;;;;;;;2.63;1.53;;;11.40;99.90;;;;;;5041294;28;20484;-66
2023/11/05 12:50:54;;;;;;;1.33;1.23;;;11.30;99.90;;;;;;5043492;28;20933;-66
2023/11/05 12:53:21;;;;;;;0.80;0.80;;;11.30;99.90;;;;;;5050108;28;20449;-66
2023/11/05 12:55:50;;;;;;;1.77;1.00;;;11.40;99.90;;;;;;5040089;28;20819;-67